createdAt,value
2022-11-16T00:01:07.601Z,84.25
2022-11-16T00:03:34.823Z,84.70
2022-11-16T00:06:03.800Z,84.06
2022-11-16T00:08:33.340Z,83.43
2022-11-16T00:11:14.807Z,83.33
2022-11-16T00:13:43.138Z,83.90
2022-11-16T00:16:17.623Z,84.01
2022-11-16T00:18:44.946Z,83.45
2022-11-16T00:21:11.731Z,83.20
2022-11-16T00:23:39.058Z,83.36
2022-11-16T00:26:07.015Z,83.22
2022-11-16T00:28:34.499Z,83.26
2022-11-16T00:31:03.956Z,83.32
2022-11-16T00:33:31.128Z,82.73
2022-11-16T00:35:57.978Z,83.06
2022-11-16T00:38:24.798Z,82.28
2022-11-16T00:40:51.555Z,81.55
2022-11-16T00:43:18.653Z,81.39
2022-11-16T00:45:45.391Z,81.29
2022-11-16T00:48:12.660Z,81.00
2022-11-16T00:50:39.726Z,81.46
2022-11-16T00:53:07.552Z,81.16
2022-11-16T00:55:34.426Z,81.51
2022-11-16T00:58:02.411Z,80.96
2022-11-16T01:00:29.289Z,81.18
2022-11-16T01:02:56.245Z,82.00
2022-11-16T01:05:24.533Z,82.46
2022-11-16T01:07:51.978Z,83.79
2022-11-16T01:10:21.407Z,82.68
2022-11-16T01:12:49.680Z,82.58
2022-11-16T01:15:17.750Z,82.61
2022-11-16T01:17:44.876Z,82.34
2022-11-16T01:20:17.549Z,81.30
2022-11-16T01:22:44.402Z,81.41
2022-11-16T01:25:12.311Z,80.60
2022-11-16T01:27:39.894Z,80.57
2022-11-16T01:30:13.046Z,81.75
2022-11-16T01:32:44.690Z,81.99
2022-11-16T01:35:16.455Z,81.94
2022-11-16T01:37:43.368Z,81.40
2022-11-16T01:40:11.517Z,81.48
2022-11-16T01:42:40.783Z,80.88
2022-11-16T01:45:20.144Z,81.63
2022-11-16T01:47:47.998Z,80.98
2022-11-16T01:50:19.001Z,80.88
2022-11-16T01:52:54.187Z,81.22
2022-11-16T01:55:23.064Z,81.01
2022-11-16T01:58:24.002Z,80.96
2022-11-16T02:00:57.386Z,80.78
2022-11-16T02:03:32.082Z,80.67
2022-11-16T02:06:07.340Z,81.33
2022-11-16T02:09:23.367Z,81.44
2022-11-16T02:12:26.541Z,81.35
2022-11-16T02:15:20.518Z,80.19
2022-11-16T02:18:00.443Z,79.38
2022-11-16T02:20:50.911Z,79.15
2022-11-16T02:23:44.500Z,79.90
2022-11-16T02:26:43.572Z,79.03
2022-11-16T02:29:32.638Z,79.28
2022-11-16T02:32:02.425Z,79.43
2022-11-16T02:34:37.742Z,79.91
2022-11-16T02:37:05.209Z,79.52
2022-11-16T02:39:33.186Z,79.76
2022-11-16T02:42:01.941Z,78.92
2022-11-16T02:44:39.284Z,78.93
2022-11-16T02:47:11.398Z,79.01
2022-11-16T02:49:43.932Z,79.36
2022-11-16T02:52:11.216Z,79.16
2022-11-16T02:54:38.371Z,78.10
2022-11-16T02:57:05.059Z,78.90
2022-11-16T02:59:43.470Z,79.55
2022-11-16T03:02:44.371Z,80.05
2022-11-16T03:05:33.933Z,80.02
2022-11-16T03:08:15.773Z,80.17
2022-11-16T03:11:04.756Z,80.65
2022-11-16T03:13:34.058Z,80.17
2022-11-16T03:16:05.796Z,80.19
2022-11-16T03:18:33.030Z,79.75
2022-11-16T03:21:16.620Z,79.73
2022-11-16T03:23:45.363Z,79.16
2022-11-16T03:26:14.090Z,79.27
2022-11-16T03:28:51.668Z,78.43
2022-11-16T03:31:29.241Z,78.80
2022-11-16T03:33:58.534Z,78.11
2022-11-16T03:36:30.158Z,78.31
2022-11-16T03:39:03.088Z,78.61
2022-11-16T03:41:33.702Z,79.33
2022-11-16T03:44:00.310Z,80.48
2022-11-16T03:46:27.146Z,81.05
2022-11-16T03:48:58.874Z,80.57
2022-11-16T03:51:29.174Z,81.08
2022-11-16T03:53:56.016Z,81.62
2022-11-16T03:56:23.304Z,82.24
2022-11-16T03:58:50.134Z,82.20
2022-11-16T04:01:17.817Z,81.83
2022-11-16T04:03:45.867Z,81.80
2022-11-16T04:06:31.328Z,81.78
2022-11-16T04:09:17.073Z,81.84
2022-11-16T04:12:02.527Z,81.45
2022-11-16T04:14:47.942Z,81.57
2022-11-16T04:17:37.749Z,81.20
2022-11-16T04:20:24.381Z,81.25
2022-11-16T04:23:13.989Z,81.25
2022-11-16T04:25:41.834Z,81.01
2022-11-16T04:28:16.786Z,80.68
2022-11-16T04:31:23.309Z,81.54
2022-11-16T04:34:20.110Z,81.08
2022-11-16T04:37:09.619Z,81.06
2022-11-16T04:39:36.457Z,80.70
2022-11-16T04:42:14.426Z,80.95
2022-11-16T04:45:01.081Z,81.54
2022-11-16T04:47:33.577Z,81.68
2022-11-16T04:50:00.365Z,82.10
2022-11-16T04:52:27.852Z,82.12
2022-11-16T04:54:55.893Z,82.10
2022-11-16T04:57:23.509Z,82.19
2022-11-16T04:59:50.669Z,82.62
2022-11-16T05:02:17.574Z,82.84
2022-11-16T05:04:49.668Z,82.45
2022-11-16T05:07:17.588Z,81.98
2022-11-16T05:09:47.762Z,82.10
2022-11-16T05:12:25.381Z,82.32
2022-11-16T05:14:57.763Z,82.89
2022-11-16T05:17:27.232Z,83.25
2022-11-16T05:20:14.099Z,83.85
2022-11-16T05:22:55.151Z,84.22
2022-11-16T05:25:23.890Z,84.71
2022-11-16T05:27:50.673Z,84.47
2022-11-16T05:30:17.646Z,83.87
2022-11-16T05:32:44.650Z,84.25
2022-11-16T05:35:13.035Z,83.78
2022-11-16T05:37:40.043Z,83.90
2022-11-16T05:40:07.710Z,83.81
2022-11-16T05:42:41.932Z,84.92
2022-11-16T05:45:09.288Z,84.59
2022-11-16T05:47:36.192Z,84.34
2022-11-16T05:50:03.405Z,84.23
2022-11-16T05:52:35.469Z,84.03
2022-11-16T05:55:06.806Z,83.63
2022-11-16T05:57:39.970Z,82.92
2022-11-16T06:00:07.885Z,82.57
2022-11-16T06:02:41.819Z,82.32
2022-11-16T06:05:15.267Z,82.55
2022-11-16T06:07:42.298Z,81.72
2022-11-16T06:10:09.453Z,80.94
2022-11-16T06:12:36.411Z,79.83
2022-11-16T06:15:03.940Z,80.65
2022-11-16T06:17:33.868Z,80.75
2022-11-16T06:20:01.204Z,81.38
2022-11-16T06:22:28.003Z,81.81
2022-11-16T06:24:54.723Z,81.42
2022-11-16T06:27:21.665Z,80.98
2022-11-16T06:29:48.489Z,80.28
2022-11-16T06:32:15.279Z,80.40
2022-11-16T06:34:42.396Z,79.87
2022-11-16T06:37:09.531Z,80.47
2022-11-16T06:39:36.291Z,80.41
2022-11-16T06:42:03.071Z,80.92
2022-11-16T06:44:30.298Z,81.43
2022-11-16T06:47:01.005Z,81.50
2022-11-16T06:49:28.086Z,81.31
2022-11-16T06:51:58.809Z,81.88
2022-11-16T06:54:35.090Z,81.34
2022-11-16T06:57:02.638Z,82.08
2022-11-16T06:59:29.517Z,81.45
2022-11-16T07:01:56.413Z,80.99
2022-11-16T07:04:23.433Z,81.30
2022-11-16T07:06:54.771Z,80.61
2022-11-16T07:09:21.657Z,80.19
2022-11-16T07:11:48.391Z,80.80
2022-11-16T07:14:16.041Z,80.77
2022-11-16T07:16:43.585Z,80.48
2022-11-16T07:19:11.185Z,80.78
2022-11-16T07:21:38.863Z,80.31
2022-11-16T07:24:10.867Z,79.87
2022-11-16T07:26:37.683Z,80.12
2022-11-16T07:29:13.885Z,79.96
2022-11-16T07:31:45.500Z,80.48
2022-11-16T07:34:32.149Z,79.68
2022-11-16T07:37:08.073Z,79.91
2022-11-16T07:39:34.858Z,79.73
2022-11-16T07:42:03.541Z,79.22
2022-11-16T07:44:50.486Z,79.53
2022-11-16T07:47:17.235Z,79.63
2022-11-16T07:49:44.030Z,80.05
2022-11-16T07:52:16.715Z,79.36
2022-11-16T07:54:57.658Z,78.84
2022-11-16T07:57:26.691Z,79.29
2022-11-16T07:59:55.528Z,79.26
2022-11-16T08:02:22.570Z,79.40
2022-11-16T08:04:51.130Z,79.55
2022-11-16T08:07:22.190Z,78.89
2022-11-16T08:09:53.294Z,79.01
2022-11-16T08:12:21.285Z,79.14
2022-11-16T08:14:48.079Z,78.79
2022-11-16T08:17:15.164Z,78.57
2022-11-16T08:19:42.758Z,78.42
2022-11-16T08:22:13.149Z,78.41
2022-11-16T08:24:41.468Z,78.24
2022-11-16T08:27:09.122Z,79.17
2022-11-16T08:29:35.883Z,78.45
2022-11-16T08:32:04.889Z,79.41
2022-11-16T08:34:34.154Z,80.07
2022-11-16T08:37:00.961Z,80.29
2022-11-16T08:39:43.371Z,79.70
2022-11-16T08:42:10.144Z,78.64
2022-11-16T08:44:38.290Z,77.81
2022-11-16T08:47:10.287Z,78.98
2022-11-16T08:49:46.572Z,78.14
2022-11-16T08:52:16.382Z,77.99
2022-11-16T08:54:43.625Z,77.97
2022-11-16T08:57:11.180Z,77.41
2022-11-16T08:59:39.617Z,77.20
2022-11-16T09:02:10.789Z,77.13
2022-11-16T09:04:37.636Z,76.72
2022-11-16T09:07:04.713Z,76.72
2022-11-16T09:09:31.483Z,77.16
2022-11-16T09:11:58.222Z,77.01
2022-11-16T09:14:25.079Z,76.38
2022-11-16T09:16:52.323Z,77.52
2022-11-16T09:19:20.469Z,77.38
2022-11-16T09:21:47.203Z,78.21
2022-11-16T09:24:13.938Z,77.82
2022-11-16T09:26:40.665Z,78.11
2022-11-16T09:29:07.438Z,78.03
2022-11-16T09:31:34.914Z,78.30
2022-11-16T09:34:02.899Z,77.75
2022-11-16T09:36:30.103Z,77.95
2022-11-16T09:42:00.459Z,78.48
2022-11-16T09:44:37.843Z,78.12
2022-11-16T09:47:09.127Z,77.40
2022-11-16T09:49:42.510Z,77.26
2022-11-16T09:52:17.157Z,77.62
2022-11-16T09:54:45.423Z,77.92
2022-11-16T09:57:16.156Z,77.88
2022-11-16T09:59:52.037Z,77.40
2022-11-16T10:02:26.717Z,77.36
2022-11-16T10:05:21.963Z,77.64
2022-11-16T10:07:52.367Z,76.98
2022-11-16T10:10:28.646Z,77.12
2022-11-16T10:13:04.376Z,77.55
2022-11-16T10:15:50.602Z,77.19
2022-11-16T10:18:43.695Z,76.54
2022-11-16T10:22:08.624Z,76.63
2022-11-16T10:24:57.782Z,75.84
2022-11-16T10:27:37.910Z,74.67
2022-11-16T10:30:18.385Z,73.20
2022-11-16T10:33:13.091Z,71.76
2022-11-16T10:35:47.057Z,70.48
2022-11-16T10:38:17.047Z,69.09
2022-11-16T10:40:46.882Z,67.30
2022-11-16T10:43:14.641Z,65.95
2022-11-16T10:46:01.096Z,65.51
2022-11-16T10:48:42.623Z,65.04
2022-11-16T10:51:10.449Z,62.75
2022-11-16T10:53:42.495Z,60.35
2022-11-16T10:56:21.403Z,58.40
2022-11-16T10:59:05.735Z,57.12
2022-11-16T11:01:41.604Z,54.95
2022-11-16T11:04:28.932Z,52.60
2022-11-16T11:07:02.802Z,54.46
2022-11-16T11:09:33.121Z,52.15
2022-11-16T11:12:37.402Z,49.11
2022-11-16T11:15:25.927Z,50.36
2022-11-16T11:18:16.569Z,47.90
2022-11-16T11:20:45.391Z,46.99
2022-11-16T11:23:19.561Z,47.35
2022-11-16T11:25:54.668Z,46.75
2022-11-16T11:28:21.381Z,45.59
2022-11-16T11:31:00.506Z,44.52
2022-11-16T11:33:30.399Z,43.88
2022-11-16T11:36:06.324Z,49.19
2022-11-16T11:38:34.403Z,42.24
2022-11-16T11:41:01.969Z,43.32
2022-11-16T11:43:29.754Z,45.35
2022-11-16T11:46:20.962Z,45.60
2022-11-16T11:48:52.084Z,43.59
2022-11-16T11:51:27.766Z,43.24
2022-11-16T11:53:56.687Z,43.25
2022-11-16T11:56:24.734Z,43.93
2022-11-16T11:58:51.991Z,44.22
2022-11-16T12:01:37.792Z,44.53
2022-11-16T12:04:42.973Z,44.05
2022-11-16T12:07:34.078Z,43.32
2022-11-16T12:10:21.725Z,43.04
2022-11-16T12:13:38.592Z,44.19
2022-11-16T12:16:08.260Z,44.72
2022-11-16T12:18:52.275Z,45.37
2022-11-16T12:21:31.976Z,46.24
2022-11-16T12:24:19.605Z,46.45
2022-11-16T12:27:13.954Z,47.32
2022-11-16T12:29:52.191Z,48.33
2022-11-16T12:32:29.166Z,48.96
2022-11-16T12:35:24.630Z,48.89
2022-11-16T12:38:03.972Z,49.88
2022-11-16T12:40:33.590Z,50.78
2022-11-16T12:43:14.551Z,51.14
2022-11-16T12:45:44.141Z,50.89
2022-11-16T12:48:27.818Z,51.35
2022-11-16T12:50:58.999Z,51.51
2022-11-16T12:54:03.306Z,50.54
2022-11-16T12:56:49.255Z,50.15
2022-11-16T12:59:52.482Z,50.62
2022-11-16T13:02:31.357Z,50.96
2022-11-16T13:05:05.695Z,51.53
2022-11-16T13:07:39.803Z,51.88
2022-11-16T13:10:13.934Z,52.39
2022-11-16T13:12:42.611Z,52.71
2022-11-16T13:15:19.259Z,53.51
2022-11-16T13:18:00.523Z,53.21
2022-11-16T13:20:49.526Z,53.79
2022-11-16T13:23:31.976Z,54.51
2022-11-16T13:26:10.739Z,54.68
2022-11-16T13:28:57.518Z,54.31
2022-11-16T13:32:02.886Z,54.71
2022-11-16T13:34:33.083Z,55.22
2022-11-16T13:36:59.851Z,55.41
2022-11-16T13:39:57.559Z,55.69
2022-11-16T13:42:24.994Z,56.92
2022-11-16T13:44:52.227Z,56.91
2022-11-16T13:47:22.051Z,57.76
2022-11-16T13:49:57.484Z,58.55
2022-11-16T13:53:23.531Z,58.76
2022-11-16T13:55:34.375Z,58.56
2022-11-16T13:58:03.284Z,58.80
2022-11-16T14:00:35.395Z,57.90
2022-11-16T14:03:17.351Z,58.65
2022-11-16T14:05:45.413Z,58.43
2022-11-16T14:08:24.359Z,58.92
2022-11-16T14:10:51.049Z,59.53
2022-11-16T14:13:30.296Z,58.96
2022-11-16T14:16:15.148Z,60.36
2022-11-16T14:18:43.458Z,60.92
2022-11-16T14:21:19.229Z,59.81
2022-11-16T14:23:48.819Z,59.58
2022-11-16T14:26:46.418Z,59.53
2022-11-16T14:29:37.681Z,60.21
2022-11-16T14:32:17.927Z,60.25
2022-11-16T14:34:47.384Z,61.42
2022-11-16T14:37:35.309Z,60.92
2022-11-16T14:40:08.623Z,61.37
2022-11-16T14:43:09.408Z,61.05
2022-11-16T14:45:32.251Z,60.50
2022-11-16T14:48:20.159Z,60.81
2022-11-16T14:51:03.611Z,60.04
2022-11-16T14:53:31.014Z,60.90
2022-11-16T14:56:13.049Z,61.13
2022-11-16T14:58:40.057Z,61.10
2022-11-16T15:01:11.893Z,61.62
2022-11-16T15:03:52.511Z,61.69
2022-11-16T15:06:19.548Z,62.16
2022-11-16T15:08:54.493Z,61.92
2022-11-16T15:11:50.581Z,61.78
2022-11-16T15:14:20.591Z,61.91
2022-11-16T15:16:52.280Z,62.02
2022-11-16T15:19:19.530Z,62.16
2022-11-16T15:21:53.365Z,62.04
2022-11-16T15:24:30.987Z,62.98
2022-11-16T15:27:22.435Z,62.07
2022-11-16T15:29:49.399Z,62.84
2022-11-16T15:32:16.949Z,64.00
2022-11-16T15:34:48.092Z,63.24
2022-11-16T15:37:26.834Z,63.05
2022-11-16T15:39:54.272Z,64.25
2022-11-16T15:42:21.498Z,63.50
2022-11-16T15:44:48.319Z,63.55
2022-11-16T15:47:16.029Z,63.84
2022-11-16T15:49:44.110Z,64.06
2022-11-16T15:52:11.309Z,64.02
2022-11-16T15:54:57.023Z,64.39
2022-11-16T15:57:24.232Z,64.43
2022-11-16T15:59:56.794Z,65.08
2022-11-16T16:02:28.743Z,64.34
2022-11-16T16:04:55.554Z,65.33
2022-11-16T16:07:39.498Z,65.56
2022-11-16T16:10:13.823Z,65.88
2022-11-16T16:12:51.399Z,67.11
2022-11-16T16:15:21.510Z,67.06
2022-11-16T16:17:48.262Z,68.08
2022-11-16T16:20:29.227Z,67.07
2022-11-16T16:23:28.508Z,67.97
2022-11-16T16:25:55.213Z,68.05
2022-11-16T16:28:21.971Z,67.92
2022-11-16T16:30:51.418Z,68.77
2022-11-16T16:33:22.889Z,68.08
2022-11-16T16:35:52.503Z,67.97
2022-11-16T16:38:19.235Z,68.41
2022-11-16T16:40:46.011Z,68.67
2022-11-16T16:43:12.771Z,70.12
2022-11-16T16:45:43.116Z,70.11
2022-11-16T16:48:11.874Z,68.71
2022-11-16T16:50:38.921Z,69.95
2022-11-16T16:53:05.929Z,69.86
2022-11-16T16:55:37.492Z,70.28
2022-11-16T16:58:05.151Z,69.46
2022-11-16T17:00:32.075Z,70.13
2022-11-16T17:02:58.810Z,70.38
2022-11-16T17:05:26.670Z,70.40
2022-11-16T17:07:56.603Z,70.57
2022-11-16T17:10:23.395Z,71.62
2022-11-16T17:12:53.528Z,70.76
2022-11-16T17:15:20.517Z,71.61
2022-11-16T17:17:47.455Z,71.06
2022-11-16T17:20:14.759Z,71.12
2022-11-16T17:22:41.959Z,71.03
2022-11-16T17:25:09.722Z,70.82
2022-11-16T17:27:36.521Z,70.82
2022-11-16T17:30:04.405Z,70.58
2022-11-16T17:32:31.135Z,71.15
2022-11-16T17:34:57.902Z,71.90
2022-11-16T17:37:24.642Z,72.53
2022-11-16T17:39:51.391Z,72.41
2022-11-16T17:42:18.108Z,72.76
2022-11-16T17:44:44.843Z,73.14
2022-11-16T17:47:11.714Z,73.92
2022-11-16T17:49:38.552Z,74.19
2022-11-16T17:52:06.234Z,74.84
2022-11-16T17:54:33.102Z,74.81
2022-11-16T17:56:59.863Z,76.08
2022-11-16T17:59:29.434Z,76.71
2022-11-16T18:01:58.065Z,76.33
2022-11-16T18:04:25.331Z,75.81
2022-11-16T18:06:52.133Z,75.64
2022-11-16T18:09:19.041Z,76.70
2022-11-16T18:11:46.055Z,77.19
2022-11-16T18:14:12.883Z,76.05
2022-11-16T18:16:42.462Z,76.55
2022-11-16T18:19:11.920Z,77.32
2022-11-16T18:21:40.233Z,77.69
2022-11-16T18:24:07.463Z,77.98
2022-11-16T18:26:34.305Z,78.06
2022-11-16T18:29:01.084Z,77.97
2022-11-16T18:31:28.100Z,78.14
2022-11-16T18:33:54.820Z,78.37
2022-11-16T18:36:22.151Z,78.46
2022-11-16T18:38:49.116Z,78.51
2022-11-16T18:41:19.797Z,78.10
2022-11-16T18:43:50.304Z,78.03
2022-11-16T18:46:18.860Z,78.68
2022-11-16T18:48:46.743Z,78.50
2022-11-16T18:51:14.459Z,78.30
2022-11-16T18:53:41.184Z,78.95
2022-11-16T18:56:27.294Z,77.98
2022-11-16T18:58:54.025Z,78.76
2022-11-16T19:01:23.474Z,77.69
2022-11-16T19:03:51.567Z,78.60
2022-11-16T19:06:18.925Z,78.56
2022-11-16T19:08:51.815Z,79.79
2022-11-16T19:11:20.601Z,79.89
2022-11-16T19:13:52.724Z,79.54
2022-11-16T19:16:19.479Z,80.82
2022-11-16T19:18:46.242Z,80.51
2022-11-16T19:21:14.933Z,80.70
2022-11-16T19:23:44.812Z,80.88
2022-11-16T19:26:13.387Z,80.86
2022-11-16T19:28:40.786Z,81.22
2022-11-16T19:31:19.413Z,81.09
2022-11-16T19:33:46.574Z,81.85
2022-11-16T19:36:18.506Z,81.17
2022-11-16T19:38:48.149Z,82.97
2022-11-16T19:41:16.397Z,82.54
2022-11-16T19:43:43.239Z,81.18
2022-11-16T19:46:12.229Z,81.23
2022-11-16T19:48:39.247Z,81.09
2022-11-16T19:51:14.760Z,81.74
2022-11-16T19:53:41.599Z,82.18
2022-11-16T19:56:10.623Z,81.99
2022-11-16T19:58:38.610Z,81.78
2022-11-16T20:01:12.132Z,82.40
2022-11-16T20:03:40.369Z,82.76
2022-11-16T20:06:15.048Z,82.37
2022-11-16T20:08:43.373Z,82.71
2022-11-16T20:11:21.796Z,83.11
2022-11-16T20:13:49.494Z,83.06
2022-11-16T20:16:18.044Z,83.06
2022-11-16T20:18:45.031Z,82.46
2022-11-16T20:21:23.585Z,82.80
2022-11-16T20:23:53.722Z,83.30
2022-11-16T20:26:21.183Z,82.74
2022-11-16T20:28:51.096Z,83.14
2022-11-16T20:31:19.883Z,82.60
2022-11-16T20:33:54.640Z,82.54
2022-11-16T20:36:25.282Z,82.69
2022-11-16T20:38:52.597Z,83.06
2022-11-16T20:41:25.182Z,83.57
2022-11-16T20:43:53.556Z,83.50
2022-11-16T20:46:21.936Z,82.84
2022-11-16T20:48:49.142Z,82.23
2022-11-16T20:51:18.342Z,82.34
2022-11-16T20:53:46.315Z,81.71
2022-11-16T20:56:14.217Z,81.38
2022-11-16T20:58:41.000Z,82.25
2022-11-16T21:01:11.175Z,81.41
2022-11-16T21:03:38.469Z,81.64
2022-11-16T21:06:08.732Z,81.90
2022-11-16T21:08:36.612Z,82.01
2022-11-16T21:11:10.012Z,82.47
2022-11-16T21:13:55.434Z,82.28
2022-11-16T21:16:22.334Z,82.49
2022-11-16T21:18:49.032Z,83.21
2022-11-16T21:21:15.755Z,82.78
2022-11-16T21:23:45.007Z,83.52
2022-11-16T21:26:14.091Z,83.50
2022-11-16T21:28:44.637Z,83.44
2022-11-16T21:31:25.420Z,84.37
2022-11-16T21:33:52.954Z,83.65
2022-11-16T21:36:21.700Z,84.49
2022-11-16T21:38:48.894Z,84.07
2022-11-16T21:41:17.272Z,84.51
2022-11-16T21:43:44.408Z,84.42
2022-11-16T21:46:12.197Z,84.65
2022-11-16T21:48:39.560Z,84.19
2022-11-16T21:51:08.626Z,84.01
2022-11-16T21:53:36.173Z,83.56
2022-11-16T21:56:04.054Z,83.27
2022-11-16T21:58:30.805Z,83.03
2022-11-16T22:00:59.490Z,83.30
2022-11-16T22:03:28.380Z,84.20
2022-11-16T22:06:15.808Z,84.21
2022-11-16T22:08:42.980Z,84.04
2022-11-16T22:11:10.337Z,83.86
2022-11-16T22:13:38.328Z,83.83
2022-11-16T22:16:13.127Z,84.39
2022-11-16T22:18:39.838Z,83.25
2022-11-16T22:21:07.006Z,83.65
2022-11-16T22:23:33.990Z,83.33
2022-11-16T22:26:08.786Z,83.94
2022-11-16T22:28:36.549Z,83.71
2022-11-16T22:31:04.334Z,82.79
2022-11-16T22:33:32.177Z,82.79
2022-11-16T22:35:59.592Z,82.69
2022-11-16T22:38:26.979Z,82.50
2022-11-16T22:40:55.780Z,82.24
2022-11-16T22:43:27.694Z,82.39
2022-11-16T22:45:58.990Z,82.76
2022-11-16T22:48:31.173Z,82.36
2022-11-16T22:51:02.599Z,83.75
2022-11-16T22:53:29.350Z,82.56
2022-11-16T22:55:56.052Z,83.47
2022-11-16T22:58:22.787Z,83.52
2022-11-16T23:00:49.617Z,83.31
2022-11-16T23:03:16.468Z,83.52
2022-11-16T23:05:43.245Z,82.90
2022-11-16T23:08:09.970Z,82.92
2022-11-16T23:10:56.677Z,82.70
2022-11-16T23:13:41.832Z,82.96
2022-11-16T23:16:08.719Z,83.04
2022-11-16T23:18:35.585Z,83.52
2022-11-16T23:21:40.700Z,83.01
2022-11-16T23:24:30.367Z,82.35
2022-11-16T23:27:16.364Z,82.65
2022-11-16T23:29:43.297Z,82.52
2022-11-16T23:32:10.236Z,82.94
2022-11-16T23:34:36.983Z,82.36
2022-11-16T23:37:07.761Z,83.40
2022-11-16T23:39:34.572Z,83.12
2022-11-16T23:42:19.884Z,83.00
2022-11-16T23:44:46.863Z,83.12
2022-11-16T23:47:13.693Z,82.88
2022-11-16T23:49:40.382Z,82.93
2022-11-16T23:52:07.487Z,83.29
2022-11-16T23:54:34.159Z,82.95
2022-11-16T23:57:00.920Z,82.56
2022-11-16T23:59:27.699Z,83.12
